Time;durP1;ratioP1;P1;durP2;ratioP2;P2;SDS_P1;SDS_P2;PMS_P1;PMS_P2;Temp;Humidity;BMP_temperature;BMP_pressure;BME280_temperature;BME280_humidity;BME280_pressure;Samples;Min_cycle;Max_cycle;Signal;HPM_P1;HPM_P2
2022/06/20 00:00:23;;;;;;;7.95;5.92;;;;;;;16.99;100.00;100969.45;1704446;82;20974;-82
2022/06/20 00:02:54;;;;;;;6.20;5.70;;;;;;;17.01;100.00;100973.61;1735288;82;21049;-82
2022/06/20 00:05:31;;;;;;;6.75;6.15;;;;;;;17.02;100.00;100969.98;1704588;82;21792;-82
2022/06/20 00:07:58;;;;;;;7.87;5.95;;;;;;;17.01;100.00;100968.34;1735721;82;21562;-86
2022/06/20 00:10:30;;;;;;;6.90;6.17;;;;;;;17.01;100.00;100961.77;1704403;82;21050;-83
2022/06/20 00:12:59;;;;;;;7.35;5.92;;;;;;;16.98;100.00;100960.74;1735807;82;21076;-82
2022/06/20 00:15:31;;;;;;;7.33;6.33;;;;;;;17.00;100.00;100961.90;1706103;82;21123;-83
2022/06/20 00:18:04;;;;;;;6.65;5.87;;;;;;;16.96;100.00;100953.48;1732893;82;21034;-83
2022/06/20 00:20:32;;;;;;;6.55;5.83;;;;;;;16.93;100.00;100952.48;1734438;82;22319;-82
2022/06/20 00:23:00;;;;;;;6.67;5.85;;;;;;;16.88;100.00;100949.42;1704954;82;21053;-82
2022/06/20 00:25:30;;;;;;;7.60;6.50;;;;;;;16.83;100.00;100955.63;1735311;82;21056;-85
2022/06/20 00:27:58;;;;;;;6.58;6.08;;;;;;;16.77;100.00;100953.59;1704752;83;21618;-83
2022/06/20 00:30:25;;;;;;;7.00;6.30;;;;;;;16.70;100.00;100947.58;1735292;82;21984;-82
2022/06/20 00:32:54;;;;;;;7.20;6.50;;;;;;;16.65;100.00;100945.89;1704545;82;21132;-83
2022/06/20 00:35:24;;;;;;;7.72;6.40;;;;;;;16.58;100.00;100943.52;1735200;82;21264;-82
2022/06/20 00:37:56;;;;;;;6.62;6.03;;;;;;;16.49;100.00;100941.77;1706023;82;21526;-83
2022/06/20 00:40:37;;;;;;;6.67;5.97;;;;;;;16.37;100.00;100941.13;1732589;82;21515;-82
2022/06/20 00:43:09;;;;;;;6.83;6.12;;;;;;;16.32;100.00;100944.69;1733016;82;21161;-83
2022/06/20 00:45:44;;;;;;;6.95;6.25;;;;;;;16.25;100.00;100940.48;1704570;82;21041;-82
2022/06/20 00:48:18;;;;;;;6.97;6.03;;;;;;;16.18;100.00;100947.30;1715369;82;21058;-83
2022/06/20 00:50:48;;;;;;;7.42;6.55;;;;;;;16.15;100.00;100947.57;1713869;83;21046;-82
2022/06/20 00:53:23;;;;;;;7.60;5.92;;;;;;;16.13;100.00;100950.34;1713132;83;21591;-83
2022/06/20 00:55:59;;;;;;;6.70;6.10;;;;;;;16.12;100.00;100953.95;1690210;83;21830;-83
2022/06/20 00:58:44;;;;;;;6.70;5.95;;;;;;;16.09;100.00;100949.81;1712672;83;21113;-83
2022/06/20 01:01:15;;;;;;;5.90;5.40;;;;;;;16.09;100.00;100947.19;1713831;83;21030;-84
2022/06/20 01:03:47;;;;;;;7.80;6.63;;;;;;;16.09;100.00;100945.05;1716758;83;20999;-83
2022/06/20 01:06:22;;;;;;;7.60;6.28;;;;;;;16.05;100.00;100941.89;1716437;83;21022;-82
2022/06/20 01:09:06;;;;;;;8.10;6.17;;;;;;;16.02;100.00;100951.86;1711763;83;21311;-82
2022/06/20 01:11:51;;;;;;;6.53;5.92;;;;;;;15.96;100.00;100946.68;1690587;83;37676;-83
2022/06/20 01:14:37;;;;;;;6.28;5.67;;;;;;;15.94;100.00;100947.30;1716205;83;21631;-83
2022/06/20 01:17:11;;;;;;;9.08;5.87;;;;;;;15.94;100.00;100939.42;1716404;83;21018;-82
2022/06/20 01:20:05;;;;;;;6.97;6.37;;;;;;;15.95;100.00;100946.80;1714209;83;21066;-83
2022/06/20 01:22:55;;;;;;;9.50;6.03;;;;;;;15.95;100.00;100952.05;1715428;83;21333;-83
2022/06/20 01:25:56;;;;;;;8.60;6.03;;;;;;;15.99;100.00;100952.94;1716331;83;20991;-82
2022/06/20 01:28:31;;;;;;;7.15;6.50;;;;;;;16.04;100.00;100950.73;1716791;83;20970;-82
2022/06/20 01:30:59;;;;;;;7.03;6.08;;;;;;;16.06;100.00;100946.14;1711356;83;21070;-83
2022/06/20 01:33:28;;;;;;;7.55;6.35;;;;;;;16.08;100.00;100952.09;1716588;83;21544;-83
2022/06/20 01:38:45;;;;;;;7.55;5.90;;;;;;;16.16;100.00;100942.20;1716332;83;21053;-82
2022/06/20 01:44:02;;;;;;;9.80;7.28;;;;;;;16.22;100.00;100935.55;1716357;83;21533;-83
2022/06/20 01:46:32;;;;;;;7.15;6.42;;;;;;;16.22;100.00;100942.11;1713605;83;21062;-82
2022/06/20 01:49:16;;;;;;;10.25;7.08;;;;;;;16.22;100.00;100949.99;1716401;83;21057;-83
2022/06/20 01:51:58;;;;;;;7.35;6.65;;;;;;;16.19;100.00;100951.58;1716288;83;20967;-84
2022/06/20 01:54:30;;;;;;;6.70;6.08;;;;;;;16.04;100.00;100958.62;1713115;83;21057;-83
2022/06/20 01:56:58;;;;;;;7.83;6.05;;;;;;;15.88;100.00;100968.39;1716408;83;21516;-82
2022/06/20 01:59:34;;;;;;;7.03;6.33;;;;;;;15.81;100.00;100962.52;1716327;83;20963;-83
2022/06/20 02:02:03;;;;;;;9.30;6.50;;;;;;;15.80;100.00;100967.41;1714092;83;21792;-83
2022/06/20 02:04:33;;;;;;;7.62;6.37;;;;;;;15.83;100.00;100966.68;1716804;83;21082;-82
2022/06/20 02:07:08;;;;;;;7.07;6.37;;;;;;;15.88;100.00;100967.57;1716630;83;21109;-83
2022/06/20 02:09:37;;;;;;;7.08;6.33;;;;;;;15.93;100.00;100964.88;1710369;83;21054;-82
2022/06/20 02:12:07;;;;;;;7.78;6.97;;;;;;;15.98;100.00;100967.07;1716576;83;21023;-82
2022/06/20 02:14:48;;;;;;;10.65;7.58;;;;;;;16.00;100.00;100966.42;1716348;83;21188;-83
2022/06/20 02:17:39;;;;;;;10.58;7.40;;;;;;;15.99;100.00;100967.39;1713482;83;21069;-83
2022/06/20 02:20:12;;;;;;;10.25;7.15;;;;;;;15.97;100.00;100964.56;1716486;83;21077;-82
2022/06/20 02:22:41;;;;;;;9.65;6.92;;;;;;;15.92;100.00;100971.55;1712959;83;20991;-83
2022/06/20 02:25:13;;;;;;;8.30;6.80;;;;;;;15.87;100.00;100968.04;1716242;83;21503;-83
2022/06/20 02:27:47;;;;;;;8.55;7.70;;;;;;;15.81;100.00;100971.20;1711029;83;21528;-82
2022/06/20 02:30:15;;;;;;;11.63;7.30;;;;;;;15.79;100.00;100978.38;1712938;83;20959;-82
2022/06/20 02:32:50;;;;;;;10.80;7.72;;;;;;;15.81;100.00;100979.58;1716346;83;21049;-83
2022/06/20 02:35:20;;;;;;;8.20;7.37;;;;;;;15.81;100.00;100977.77;1711025;83;21078;-83
2022/06/20 02:37:49;;;;;;;7.80;7.10;;;;;;;15.83;100.00;100981.12;1716745;83;21630;-86
2022/06/20 02:40:20;;;;;;;10.23;7.95;;;;;;;15.84;100.00;100978.84;1716270;83;21145;-83
2022/06/20 02:43:00;;;;;;;7.80;7.10;;;;;;;15.89;100.00;100982.36;1713459;83;21038;-83
2022/06/20 02:45:31;;;;;;;10.32;7.92;;;;;;;15.94;100.00;100985.38;1716601;83;21065;-85
2022/06/20 02:48:04;;;;;;;8.58;7.78;;;;;;;16.00;100.00;100984.81;1716209;83;21038;-83
2022/06/20 02:50:39;;;;;;;8.93;7.65;;;;;;;16.05;100.00;100989.64;1716494;83;21141;-83
2022/06/20 02:53:23;;;;;;;8.55;7.47;;;;;;;16.09;100.00;100991.84;1713200;83;21140;-84
2022/06/20 02:55:52;;;;;;;8.48;7.67;;;;;;;16.19;100.00;100983.92;1716289;83;21499;-82
2022/06/20 02:58:28;;;;;;;11.53;7.55;;;;;;;16.29;100.00;100986.54;1716459;83;21065;-83
2022/06/20 03:01:01;;;;;;;8.95;7.95;;;;;;;16.37;100.00;100986.65;1716288;83;21288;-83
2022/06/20 03:03:39;;;;;;;9.20;8.13;;;;;;;16.48;100.00;100984.78;1714053;83;21041;-82
2022/06/20 03:06:13;;;;;;;9.85;8.20;;;;;;;16.55;100.00;100988.48;1713811;83;21177;-86
2022/06/20 03:08:41;;;;;;;9.58;8.23;;;;;;;16.63;100.00;100987.77;1713751;83;21041;-84
2022/06/20 03:11:11;;;;;;;8.80;7.90;;;;;;;16.72;100.00;100991.66;1716597;83;21065;-82
2022/06/20 03:13:41;;;;;;;9.35;8.35;;;;;;;16.80;100.00;100988.78;1716646;83;21481;-83
2022/06/20 03:16:10;;;;;;;10.23;8.43;;;;;;;16.90;100.00;100994.81;1716494;83;20994;-82
2022/06/20 03:18:45;;;;;;;10.43;8.88;;;;;;;17.00;100.00;100998.26;1716550;83;21171;-82
2022/06/20 03:21:13;;;;;;;9.15;8.25;;;;;;;17.13;100.00;100994.42;1711140;83;21081;-84
2022/06/20 03:23:40;;;;;;;9.33;8.28;;;;;;;17.25;100.00;100989.30;1716706;83;21596;-83
2022/06/20 03:26:15;;;;;;;9.38;8.43;;;;;;;17.37;100.00;100991.22;1716543;83;21027;-83
2022/06/20 03:28:42;;;;;;;11.12;8.98;;;;;;;17.47;100.00;100989.81;1711969;83;20963;-83
2022/06/20 03:31:11;;;;;;;9.60;8.60;;;;;;;17.59;100.00;100989.89;1716727;83;21776;-84
2022/06/20 03:33:40;;;;;;;9.10;8.10;;;;;;;17.73;100.00;100994.30;1716427;83;20935;-83
2022/06/20 03:36:21;;;;;;;9.55;8.60;;;;;;;17.85;100.00;100992.24;1716725;83;21062;-82
2022/06/20 03:38:50;;;;;;;10.28;9.23;;;;;;;17.96;100.00;100990.22;1713111;83;21070;-83
2022/06/20 03:41:21;;;;;;;10.35;9.30;;;;;;;18.08;100.00;100993.41;1716332;83;21097;-82
2022/06/20 03:44:00;;;;;;;;;;;;;;;18.20;100.00;100992.66;1718545;83;21252;-82
2022/06/20 03:46:32;;;;;;;9.88;8.98;;;;;;;18.33;100.00;100988.75;1715588;83;20479;-83
2022/06/20 03:49:36;;;;;;;11.78;9.78;;;;;;;18.44;100.00;100988.49;1712820;83;21010;-82
2022/06/20 03:52:08;;;;;;;11.10;9.90;;;;;;;18.55;100.00;100976.83;1716295;83;21277;-83
2022/06/20 03:54:41;;;;;;;11.05;9.73;;;;;;;18.70;100.00;100978.38;1710964;83;21050;-83
2022/06/20 03:57:17;;;;;;;15.10;10.63;;;;;;;18.81;100.00;100974.10;1712782;83;21812;-82
2022/06/20 03:59:49;;;;;;;12.25;10.95;;;;;;;18.94;100.00;100973.67;1711036;83;21041;-83
2022/06/20 04:02:39;;;;;;;22.25;16.60;;;;;;;19.07;100.00;100974.53;1715847;83;21011;-83
2022/06/20 04:05:20;;;;;;;37.05;25.52;;;;;;;19.19;100.00;100971.89;1716492;83;20974;-83
2022/06/20 04:08:14;;;;;;;43.78;27.48;;;;;;;19.33;100.00;100970.42;1715523;83;21551;-83
2022/06/20 04:11:03;;;;;;;21.77;17.15;;;;;;;19.45;100.00;100970.92;1716575;83;21539;-83
2022/06/20 04:13:49;;;;;;;21.07;15.40;;;;;;;19.56;100.00;100972.40;1715420;83;21073;-82
2022/06/20 04:16:24;;;;;;;19.73;14.83;;;;;;;19.61;100.00;100970.11;1712963;83;21413;-85
2022/06/20 04:19:08;;;;;;;16.85;13.62;;;;;;;19.64;100.00;100972.91;1713704;83;21014;-83
2022/06/20 04:22:08;;;;;;;17.23;12.80;;;;;;;19.65;100.00;100975.87;1712789;83;21054;-83
2022/06/20 04:24:43;;;;;;;;;;;;;;;19.66;100.00;100965.13;1679820;83;20995;-82
2022/06/20 04:27:48;;;;;;;15.15;11.73;;;;;;;19.72;100.00;100967.61;1716423;83;20137;-82
2022/06/20 04:30:33;;;;;;;14.63;12.15;;;;;;;19.82;100.00;100964.30;1713040;83;21006;-82
2022/06/20 04:33:09;;;;;;;15.63;12.88;;;;;;;20.01;100.00;100970.22;1713830;83;21034;-82
2022/06/20 04:35:42;;;;;;;12.45;11.20;;;;;;;20.17;100.00;100969.37;1710980;83;21128;-83
2022/06/20 04:38:24;;;;;;;17.10;12.23;;;;;;;20.30;100.00;100966.19;1713150;83;21234;-82
2022/06/20 04:41:00;;;;;;;;;;;;;;;20.47;100.00;100971.70;1714091;82;21053;-83
2022/06/20 04:43:44;;;;;;;13.48;12.05;;;;;;;20.65;100.00;100964.88;1724612;82;20199;-83
2022/06/20 04:46:25;;;;;;;14.38;11.25;;;;;;;20.77;100.00;100964.01;1712129;83;22367;-83
2022/06/20 04:48:53;;;;;;;12.53;10.53;;;;;;;20.91;100.00;100962.92;1715768;81;20959;-82
2022/06/20 04:51:27;;;;;;;14.00;11.75;;;;;;;21.03;100.00;100961.51;1716320;82;21243;-84
2022/06/20 04:53:55;;;;;;;11.48;10.38;;;;;;;21.16;100.00;100950.84;1714496;83;21138;-83
2022/06/20 04:56:26;;;;;;;12.70;10.95;;;;;;;21.30;100.00;100958.01;1716515;83;21042;-86
2022/06/20 04:59:00;;;;;;;16.48;10.75;;;;;;;21.46;100.00;100962.84;1716825;82;21520;-82
2022/06/20 05:01:34;;;;;;;12.37;11.08;;;;;;;21.62;100.00;100953.45;1714184;82;21085;-84
2022/06/20 05:04:26;;;;;;;22.05;10.55;;;;;;;21.79;100.00;100955.95;1715711;81;21109;-83
2022/06/20 05:06:57;;;;;;;15.10;11.43;;;;;;;21.94;100.00;100948.83;1726186;82;21022;-83
2022/06/20 05:09:37;;;;;;;11.95;10.75;;;;;;;22.12;100.00;100943.67;1762286;80;21548;-82
2022/06/20 05:12:28;;;;;;;12.18;10.98;;;;;;;22.27;100.00;100950.30;1747387;81;21104;-82
2022/06/20 05:15:19;;;;;;;15.32;11.57;;;;;;;22.41;100.00;100956.11;1720467;81;21054;-85
2022/06/20 05:17:49;;;;;;;14.33;11.22;;;;;;;22.58;100.00;100946.09;1751683;81;21279;-84
2022/06/20 05:20:30;;;;;;;13.22;11.57;;;;;;;22.75;100.00;100951.17;1808401;78;21501;-82
2022/06/20 05:23:06;;;;;;;15.45;11.80;;;;;;;22.89;100.00;100945.50;1725939;82;21546;-82
2022/06/20 05:25:36;;;;;;;14.13;11.63;;;;;;;23.04;100.00;100949.41;1738388;81;21113;-83
2022/06/20 05:28:08;;;;;;;12.28;11.08;;;;;;;23.19;100.00;100946.23;1738298;81;20969;-83
2022/06/20 05:30:37;;;;;;;11.95;10.23;;;;;;;23.34;100.00;100938.69;1724914;81;21118;-82
2022/06/20 05:33:22;;;;;;;11.45;10.35;;;;;;;23.47;100.00;100938.27;1781395;79;21493;-82
2022/06/20 05:36:04;;;;;;;10.72;9.05;;;;;;;23.61;100.00;100938.37;1778559;79;21547;-83
2022/06/20 05:38:56;;;;;;;11.08;9.28;;;;;;;23.78;100.00;100932.23;1784538;79;20997;-83
2022/06/20 05:41:24;;;;;;;9.30;8.15;;;;;;;23.96;100.00;100936.26;1780881;79;20958;-83
2022/06/20 05:43:51;;;;;;;10.25;9.23;;;;;;;24.11;100.00;100928.97;1725740;81;21073;-83
2022/06/20 05:46:29;;;;;;;12.30;8.90;;;;;;;24.22;100.00;100924.42;1731759;81;21081;-83
2022/06/20 05:49:05;;;;;;;13.45;9.28;;;;;;;24.36;100.00;100923.94;1728825;82;21097;-83
2022/06/20 05:51:37;;;;;;;12.88;10.18;;;;;;;24.52;100.00;100929.44;1743215;81;21713;-83
2022/06/20 05:54:18;;;;;;;12.53;10.18;;;;;;;24.67;100.00;100920.48;1760487;81;21084;-84
2022/06/20 05:56:50;;;;;;;11.85;10.03;;;;;;;24.81;100.00;100915.48;1744261;81;21842;-83
2022/06/20 05:59:37;;;;;;;11.20;9.63;;;;;;;24.96;100.00;100917.14;1734178;82;20991;-83
2022/06/20 06:02:18;;;;;;;14.33;9.70;;;;;;;25.08;100.00;100910.72;1731723;82;21124;-82
2022/06/20 06:04:51;;;;;;;16.52;11.40;;;;;;;25.21;100.00;100906.71;1731725;82;21018;-83
2022/06/20 06:07:24;;;;;;;13.78;11.73;;;;;;;25.34;100.00;100910.69;1734553;81;21038;-83
2022/06/20 06:10:19;;;;;;;12.75;11.22;;;;;;;25.44;100.00;100904.96;1728888;82;21097;-86
2022/06/20 06:12:52;;;;;;;12.53;11.22;;;;;;;25.56;100.00;100903.81;1733715;82;20975;-83
2022/06/20 06:15:33;;;;;;;11.45;10.23;;;;;;;25.69;100.00;100897.64;1726264;82;21046;-83
2022/06/20 06:18:07;;;;;;;10.70;9.65;;;;;;;25.80;100.00;100893.00;1733593;81;20994;-82
2022/06/20 06:20:37;;;;;;;11.08;9.73;;;;;;;25.92;100.00;100899.03;1734874;81;21093;-83
2022/06/20 06:23:08;;;;;;;10.55;9.45;;;;;;;26.04;100.00;100894.66;1741834;81;21380;-82
2022/06/20 06:25:39;;;;;;;9.63;8.63;;;;;;;26.14;100.00;100894.23;1736935;81;21558;-82
2022/06/20 06:28:20;;;;;;;12.60;8.85;;;;;;;26.23;100.00;100880.95;1731399;82;21013;-83
2022/06/20 06:31:10;;;;;;;9.35;8.43;;;;;;;26.33;100.00;100885.81;1733942;82;23737;-82
2022/06/20 06:34:03;;;;;;;10.70;8.35;;;;;;;26.42;100.00;100880.53;1717483;82;21099;-83
2022/06/20 06:36:55;;;;;;;9.20;8.20;;;;;;;26.56;100.00;100879.14;1732276;81;21805;-84
2022/06/20 06:39:43;;;;;;;8.98;8.08;;;;;;;26.66;95.83;100872.78;1741015;81;21010;-84
2022/06/20 06:42:14;;;;;;;8.65;6.60;;;;;;;26.75;94.79;100871.48;1730578;81;21036;-84
2022/06/20 06:44:46;;;;;;;10.58;7.22;;;;;;;26.80;85.77;100870.87;1740936;81;21001;-83
2022/06/20 06:47:21;;;;;;;13.43;8.33;;;;;;;26.85;87.65;100866.22;1740810;81;21061;-84
2022/06/20 06:49:54;;;;;;;5.53;4.90;;;;;;;26.90;90.33;100872.55;1768600;79;21382;-84
2022/06/20 06:52:29;;;;;;;8.85;6.90;;;;;;;26.92;74.85;100868.31;1779588;79;20999;-84
2022/06/20 06:55:05;;;;;;;8.13;6.87;;;;;;;26.91;75.50;100868.84;1725695;81;21023;-84
2022/06/20 06:57:45;;;;;;;8.95;7.10;;;;;;;26.86;73.01;100862.52;1715551;81;21555;-84
2022/06/20 07:00:18;;;;;;;9.90;8.35;;;;;;;26.88;74.93;100865.27;1730527;82;20999;-84
2022/06/20 07:02:58;;;;;;;9.70;7.87;;;;;;;26.99;91.66;100861.59;1707622;82;21035;-84
2022/06/20 07:05:39;;;;;;;12.50;7.55;;;;;;;27.09;80.15;100864.55;1730347;81;21104;-85
2022/06/20 07:08:15;;;;;;;11.50;8.38;;;;;;;27.17;80.89;100857.59;1783605;79;21560;-84
2022/06/20 07:11:06;;;;;;;11.10;8.35;;;;;;;27.18;74.40;100858.43;1732565;82;21057;-83
2022/06/20 07:13:44;;;;;;;12.18;8.60;;;;;;;27.20;78.07;100852.36;1726872;82;21202;-84
2022/06/20 07:16:23;;;;;;;12.80;9.30;;;;;;;27.29;80.92;100851.00;1728732;81;21157;-84
2022/06/20 07:18:54;;;;;;;9.78;8.10;;;;;;;27.32;75.78;100847.90;1719393;81;21030;-84
2022/06/20 07:21:24;;;;;;;11.73;9.00;;;;;;;27.39;84.26;100845.97;1720767;82;21038;-83
2022/06/20 07:24:03;;;;;;;12.28;8.75;;;;;;;27.45;77.21;100838.13;1719836;81;21054;-83
2022/06/20 07:26:45;;;;;;;7.78;6.75;;;;;;;27.50;76.37;100831.61;1715497;82;21051;-85
2022/06/20 07:29:20;;;;;;;9.25;6.65;;;;;;;27.58;67.80;100824.63;1716028;81;21178;-83
2022/06/20 07:31:56;;;;;;;8.78;7.42;;;;;;;27.61;65.70;100825.49;1729101;81;21035;-84
2022/06/20 07:34:30;;;;;;;9.03;7.90;;;;;;;27.65;67.76;100821.34;1728950;81;21074;-83
2022/06/20 07:37:22;;;;;;;8.53;7.37;;;;;;;27.75;69.46;100818.66;1721573;81;21018;-83
2022/06/20 07:40:06;;;;;;;9.50;7.12;;;;;;;27.85;68.88;100814.91;1721597;83;21287;-86
2022/06/20 07:42:38;;;;;;;7.75;6.95;;;;;;;27.98;68.71;100809.41;1724835;81;21321;-83
2022/06/20 07:45:32;;;;;;;12.10;7.03;;;;;;;28.09;63.04;100805.16;1745328;81;21054;-84
2022/06/20 07:48:14;;;;;;;8.20;7.08;;;;;;;28.12;65.34;100798.00;1744703;81;21065;-84
2022/06/20 07:50:59;;;;;;;7.85;7.05;;;;;;;28.24;65.39;100791.38;1730936;81;21041;-84
2022/06/20 07:53:34;;;;;;;9.10;6.58;;;;;;;28.33;62.82;100787.83;1722047;81;21072;-83
2022/06/20 07:56:13;;;;;;;14.13;7.47;;;;;;;28.41;58.16;100789.34;1716928;83;21860;-84
2022/06/20 07:58:48;;;;;;;7.78;6.97;;;;;;;28.42;58.42;100781.60;1718186;83;21061;-84
2022/06/20 08:01:22;;;;;;;8.05;7.25;;;;;;;28.46;65.40;100781.45;1721487;83;21514;-84
2022/06/20 08:04:00;;;;;;;7.33;6.62;;;;;;;28.55;62.80;100776.05;1719362;83;21049;-84
2022/06/20 08:06:45;;;;;;;7.95;6.22;;;;;;;28.58;58.42;100766.20;1720590;81;21129;-84
2022/06/20 08:09:31;;;;;;;7.60;6.20;;;;;;;28.55;59.32;100766.67;1727169;81;21169;-85
2022/06/20 08:12:21;;;;;;;11.65;5.87;;;;;;;28.64;59.61;100761.23;1750314;81;21049;-86
2022/06/20 08:14:55;;;;;;;7.25;5.35;;;;;;;28.74;56.18;100763.89;1755607;81;21104;-85
2022/06/20 08:17:25;;;;;;;9.13;5.75;;;;;;;28.79;59.61;100768.05;1792133;79;20987;-84
2022/06/20 08:19:55;;;;;;;8.65;6.15;;;;;;;28.82;56.43;100766.77;1784896;79;21052;-83
2022/06/20 08:22:54;;;;;;;6.17;5.50;;;;;;;28.86;59.33;100756.69;1785291;79;21120;-83
2022/06/20 08:25:39;;;;;;;5.37;4.87;;;;;;;28.95;59.95;100757.97;1785309;78;20995;-84
2022/06/20 08:28:21;;;;;;;6.58;4.95;;;;;;;29.05;58.65;100752.51;1777566;79;22200;-84
2022/06/20 08:30:57;;;;;;;8.60;4.90;;;;;;;29.13;55.70;100746.78;1803962;78;21014;-86
2022/06/20 08:33:55;;;;;;;5.62;4.97;;;;;;;29.22;53.11;100746.71;1804895;79;21563;-84
2022/06/20 08:36:46;;;;;;;7.78;5.65;;;;;;;29.28;52.17;100747.09;1748389;79;21891;-83
2022/06/20 08:39:24;;;;;;;8.03;4.22;;;;;;;29.38;55.07;100742.52;1807891;79;21017;-84
2022/06/20 08:42:16;;;;;;;5.72;4.40;;;;;;;29.52;52.00;100740.88;1800325;79;20999;-84
2022/06/20 08:45:04;;;;;;;5.30;4.85;;;;;;;29.63;52.74;100740.55;1776035;79;21512;-83
2022/06/20 08:48:08;;;;;;;5.15;4.67;;;;;;;29.70;51.53;100733.99;1806361;79;21046;-83
2022/06/20 08:51:03;;;;;;;9.30;5.60;;;;;;;29.72;51.00;100732.41;1757247;79;21339;-83
2022/06/20 08:54:18;;;;;;;7.00;5.90;;;;;;;29.75;49.70;100735.42;1799387;78;21043;-84
2022/06/20 08:56:57;;;;;;;7.90;5.40;;;;;;;29.77;48.84;100726.31;1808966;79;21002;-83
2022/06/20 08:59:37;;;;;;;8.55;5.08;;;;;;;29.82;48.87;100719.17;1719598;82;21528;-82
2022/06/20 09:02:36;;;;;;;5.03;4.53;;;;;;;29.89;51.41;100720.34;1741773;81;21104;-86
2022/06/20 09:05:30;;;;;;;4.33;4.03;;;;;;;29.92;50.60;100725.81;1784408;80;21142;-83
2022/06/20 09:08:09;;;;;;;5.62;5.10;;;;;;;29.98;49.65;100714.10;1796413;78;21065;-83
2022/06/20 09:11:02;;;;;;;5.50;4.60;;;;;;;30.03;46.64;100713.66;1796046;79;21068;-83
2022/06/20 09:13:47;;;;;;;5.50;4.35;;;;;;;30.06;47.34;100705.65;1799398;79;22176;-85
2022/06/20 09:16:57;;;;;;;5.85;5.12;;;;;;;30.11;48.94;100690.95;1786605;78;21524;-86
2022/06/20 09:19:38;;;;;;;7.20;5.75;;;;;;;30.16;49.70;100695.08;1792626;79;21129;-84
2022/06/20 09:22:33;;;;;;;6.80;5.28;;;;;;;30.24;48.12;100695.72;1788626;79;21013;-84
2022/06/20 09:25:22;;;;;;;6.95;4.83;;;;;;;30.20;45.29;100687.34;1786199;79;21545;-84
2022/06/20 09:28:11;;;;;;;8.93;5.00;;;;;;;30.06;43.49;100690.88;1792002;79;21037;-83
2022/06/20 09:30:56;;;;;;;5.45;4.95;;;;;;;30.00;46.58;100689.18;1788372;79;21037;-85
2022/06/20 09:33:43;;;;;;;7.60;5.10;;;;;;;30.02;48.03;100681.67;1789195;79;21129;-83
2022/06/20 09:36:35;;;;;;;5.42;4.92;;;;;;;30.07;47.33;100679.09;1735531;81;21568;-84
2022/06/20 09:39:36;;;;;;;8.05;5.45;;;;;;;30.16;46.93;100674.11;1797280;78;21559;-84
2022/06/20 09:42:24;;;;;;;5.55;4.90;;;;;;;30.26;47.14;100672.10;1792845;79;21093;-85
2022/06/20 09:45:12;;;;;;;6.42;5.25;;;;;;;30.37;49.29;100670.66;1722723;81;21038;-88
2022/06/20 09:48:10;;;;;;;5.92;4.45;;;;;;;30.46;47.80;100669.73;1789075;79;21178;-83
2022/06/20 09:50:59;;;;;;;5.83;5.28;;;;;;;30.60;48.86;100670.73;1810848;78;21028;-83
2022/06/20 09:53:50;;;;;;;5.90;5.28;;;;;;;30.69;47.72;100667.91;1781970;80;20939;-83
2022/06/20 09:56:41;;;;;;;5.58;4.72;;;;;;;30.76;45.98;100668.53;1780757;79;23640;-83
2022/06/20 09:59:42;;;;;;;5.37;4.87;;;;;;;30.83;46.78;100657.06;1793176;79;21065;-85
2022/06/20 10:02:39;;;;;;;5.58;4.78;;;;;;;30.92;43.92;100654.77;1788574;79;21135;-83
2022/06/20 10:05:27;;;;;;;5.25;4.72;;;;;;;31.00;43.67;100648.13;1781295;79;21057;-84
2022/06/20 10:08:12;;;;;;;4.33;4.00;;;;;;;31.02;43.95;100643.31;1785226;79;21602;-84
2022/06/20 10:10:51;;;;;;;5.33;4.10;;;;;;;31.03;45.09;100646.28;1779591;79;21417;-83
2022/06/20 10:13:23;;;;;;;4.80;4.30;;;;;;;31.06;43.54;100643.08;1772811;80;21089;-83
2022/06/20 10:16:01;;;;;;;5.85;4.30;;;;;;;31.12;43.59;100644.81;1775036;80;21138;-83
2022/06/20 10:18:49;;;;;;;4.25;3.92;;;;;;;31.18;46.00;100634.89;1784239;80;21076;-83
2022/06/20 10:21:37;;;;;;;6.15;4.28;;;;;;;31.28;43.25;100626.94;1773934;79;21066;-84
2022/06/20 10:24:39;;;;;;;4.85;3.37;;;;;;;31.33;41.19;100619.45;1772962;80;21031;-84
2022/06/20 10:27:27;;;;;;;4.97;4.20;;;;;;;31.35;42.42;100613.30;1783973;79;21884;-83
2022/06/20 10:30:28;;;;;;;6.03;4.35;;;;;;;31.36;42.22;100617.61;1797597;79;21528;-87
2022/06/20 10:33:07;;;;;;;3.60;3.30;;;;;;;31.37;40.54;100615.17;1767604;80;21085;-86
2022/06/20 10:35:49;;;;;;;6.25;3.87;;;;;;;31.40;40.86;100618.71;1778373;79;21651;-83
2022/06/20 10:38:39;;;;;;;6.72;4.60;;;;;;;31.38;41.23;100615.45;1783665;79;20980;-86
2022/06/20 10:41:26;;;;;;;8.43;4.10;;;;;;;31.39;44.02;100609.02;1786575;79;21006;-83
2022/06/20 10:44:15;;;;;;;6.47;4.40;;;;;;;31.41;42.43;100604.20;1790170;79;21120;-84
2022/06/20 10:46:47;;;;;;;4.50;3.47;;;;;;;31.44;41.98;100606.39;1723352;82;21082;-84
2022/06/20 10:49:29;;;;;;;4.35;3.95;;;;;;;31.49;40.30;100604.25;1725937;82;21051;-84
2022/06/20 10:52:11;;;;;;;4.90;3.85;;;;;;;31.53;41.21;100600.55;1729233;81;21063;-85
2022/06/20 10:55:14;;;;;;;4.65;3.22;;;;;;;31.55;41.09;100598.39;1732788;81;21041;-83
2022/06/20 10:57:59;;;;;;;5.15;4.17;;;;;;;31.60;42.26;100592.52;1740693;82;21267;-84
2022/06/20 11:00:31;;;;;;;4.12;3.70;;;;;;;31.66;38.78;100593.89;1715688;82;21067;-84
2022/06/20 11:03:16;;;;;;;4.78;4.03;;;;;;;31.64;38.93;100588.78;1733149;82;21590;-84
2022/06/20 11:06:17;;;;;;;3.50;3.20;;;;;;;31.65;40.80;100586.91;1731077;82;21018;-83
2022/06/20 11:09:18;;;;;;;3.97;3.60;;;;;;;31.70;39.21;100582.94;1719922;82;21082;-83
2022/06/20 11:12:00;;;;;;;4.05;3.65;;;;;;;31.65;39.58;100576.16;1744866;82;21102;-85
2022/06/20 11:15:08;;;;;;;4.35;3.60;;;;;;;31.67;39.57;100582.92;1718567;82;21649;-86
2022/06/20 11:17:55;;;;;;;5.95;4.05;;;;;;;31.74;41.78;100575.95;1730328;82;21041;-84
2022/06/20 11:20:43;;;;;;;6.80;4.00;;;;;;;31.84;42.15;100579.27;1739854;82;20999;-84
2022/06/20 11:23:30;;;;;;;4.35;3.87;;;;;;;31.93;40.57;100568.27;1742619;82;21053;-84
2022/06/20 11:26:07;;;;;;;4.10;3.70;;;;;;;31.99;42.47;100563.73;1727304;82;21158;-84
2022/06/20 11:28:45;;;;;;;4.35;3.92;;;;;;;32.08;43.71;100567.05;1725301;82;21051;-84
2022/06/20 11:31:24;;;;;;;4.03;3.62;;;;;;;32.07;42.94;100555.99;1723148;82;21012;-84
2022/06/20 11:34:39;;;;;;;5.08;3.80;;;;;;;31.98;39.20;100556.20;1730115;82;21041;-88
2022/06/20 11:37:50;;;;;;;4.05;3.75;;;;;;;31.83;42.62;100556.91;1723347;82;21140;-86
2022/06/20 11:41:01;;;;;;;5.70;3.92;;;;;;;31.91;41.56;100551.05;1727573;82;21909;-89
2022/06/20 11:44:15;;;;;;;5.00;3.40;;;;;;;32.06;41.91;100540.91;1734219;82;21074;-84
2022/06/20 11:46:57;;;;;;;5.42;3.85;;;;;;;32.18;42.32;100541.21;1728690;82;21054;-85
2022/06/20 11:50:02;;;;;;;5.10;3.95;;;;;;;32.08;40.69;100540.12;1726210;82;21029;-85
2022/06/20 11:52:56;;;;;;;5.65;3.60;;;;;;;31.98;43.84;100542.75;1726727;82;21005;-84
2022/06/20 11:55:36;;;;;;;3.75;3.45;;;;;;;31.98;43.40;100534.67;1731533;82;21154;-85
2022/06/20 11:58:44;;;;;;;4.05;3.65;;;;;;;32.07;42.30;100529.59;1729655;82;20995;-85
2022/06/20 12:01:19;;;;;;;4.08;3.67;;;;;;;32.16;43.07;100528.56;1748383;81;21039;-84
2022/06/20 12:04:10;;;;;;;3.80;3.52;;;;;;;32.27;43.03;100528.10;1739919;81;21825;-86
2022/06/20 12:06:46;;;;;;;3.80;3.40;;;;;;;32.28;42.91;100528.37;1738722;81;21065;-84
2022/06/20 12:09:47;;;;;;;3.77;3.17;;;;;;;32.20;40.17;100526.95;1729901;82;21090;-84
2022/06/20 12:12:43;;;;;;;4.05;3.40;;;;;;;32.17;39.69;100533.69;1731153;81;21105;-84
2022/06/20 12:15:37;;;;;;;4.72;3.25;;;;;;;32.01;41.20;100530.64;1731335;82;21089;-85
2022/06/20 12:18:25;;;;;;;4.00;2.90;;;;;;;31.83;40.73;100519.23;1685977;83;21034;-88
2022/06/20 12:23:53;;;;;;;5.22;3.40;;;;;;;31.71;37.60;100514.05;1682980;84;21175;-85
2022/06/20 12:26:35;;;;;;;4.95;3.10;;;;;;;31.71;40.14;100513.25;1733830;81;21022;-84